Terminal Aerodrome Forecast
Issued by NWS Binghamton, NY

Home | Current Version | Previous Version | Text Only | Print | Product List | Glossary On
Versions: 1 2 3 4 5 6 7 8 9 10 11 12 13 14 15 16
484
FTUS41 KBGM 260234 AAA
TAFSYR
TAF AMD
KSYR 260234Z 2603/2624 28009KT P6SM -SHRA SCT008 BKN020 OVC030
      TEMPO 2603/2604 5SM -SHRA BR BKN008
     FM260400 28010KT 6SM -SHRA BR OVC008
     FM260900 26014KT 6SM -SHRA BR OVC012
     FM261500 27012G22KT P6SM OVC022
     FM262000 29014KT P6SM SCT030 BKN050=

USA.gov is the U.S. government's official web portal to all federal, state and local government web resources and services.